New Hope, Virginia
Current Conditions -  °F | °C
As of 1:55 AM on Sunday 21 Dec 2014 (Local Time) from KSHD Reporting Station
Overcast Overcast  
Wind Chill: 32°   Ceiling: 6000
Heat Index: 32°   Visibility: 10mi
Dew Point: 26°   Wind: 0mph
Humidity: 79%   Direction: NA
Pressure: 30.25"   Gusts: NA
Location:  38.19°N, 78.9°W
Report Text: KSHD 210655Z AUTO 00000KT 10SM OVC060 00/M03 A3025 RMK AO2 T00001032
Loading
Personal Weather Stations






























Interactive Weather Map New forecast layout! Learn more

10-Day Weather Forecast

Advertisements
Track Severe Weather on mobile